Susaki Maru — JD3829 — position and weather

sailwx.info

Track history (hours):
 
Tides and Currents Weather Stations Pressure Air Temp Water Temp Dewpoint Dewpoint Depression Visibility Wind Speed Wind Dir Waves Ship Positions

Susaki Maru

Last reported at 2018-Apr-23 11:28 UTC. Time now 2018-Apr-24 14:32 UTC.
Position N 34°03' E 134°35'.

Length 79 m; draft 4.6 m.

Type: Tanker. MMSI: 431006292.

Date/timePositionNaut miles runAvg speedWind from/ knotsBaromVisibWave heightAir tempDewpointWater temp
2018-Apr-23 11:28N 34°03' E 134°35'0 0.0
2018-Apr-23 10:46N 34°03' E 134°35'0 0.0
2018-Apr-23 10:16N 34°03' E 134°35'0 0.0
2018-Apr-23 09:58N 34°03' E 134°35'0 0.0
2018-Apr-23 09:28N 34°03' E 134°35'0 0.0
2018-Apr-23 05:16N 34°03' E 134°35'0 0.0
2018-Apr-22 21:57N 34°03' E 134°35'2 5.2
2018-Apr-22 21:28N 34°03' E 134°38'611.4
2018-Apr-22 20:58N 34°06' E 134°44'511.4
2018-Apr-22 20:30N 34°08' E 134°50'611.6
2018-Apr-22 20:00N 34°11' E 134°56'611.3
2018-Apr-22 19:30N 34°13' E 135°02'5 9.3
2018-Apr-22 19:00N 34°14' E 135°08'0 0.1
2018-Apr-22 18:29N 34°14' E 135°08'0 0.0
2018-Apr-22 17:59N 34°14' E 135°08'0 0.0
2018-Apr-22 17:29N 34°14' E 135°08'0 0.0
2018-Apr-22 16:59N 34°14' E 135°08'0 0.0
2018-Apr-22 16:29N 34°14' E 135°08'0 0.1
2018-Apr-22 16:01N 34°14' E 135°08'2 4.2
2018-Apr-22 15:31N 34°15' E 135°05'0 0.7
2018-Apr-22 15:00N 34°15' E 135°06'0 0.0
2018-Apr-22 14:30N 34°15' E 135°06'0 0.0
2018-Apr-22 14:00N 34°15' E 135°06'0 0.0
2018-Apr-22 13:30N 34°15' E 135°06'0 0.0
2018-Apr-22 13:00N 34°15' E 135°06'0 0.0
2018-Apr-22 12:30N 34°15' E 135°06'0 0.0
2018-Apr-22 12:00N 34°15' E 135°06'0 0.0
2018-Apr-22 11:30N 34°15' E 135°06'0 0.0
2018-Apr-22 11:00N 34°15' E 135°06'0 0.0
2018-Apr-22 10:30N 34°15' E 135°06'0 0.1
2018-Apr-22 10:00N 34°15' E 135°06'0 0.0
2018-Apr-22 09:30N 34°15' E 135°06'0 0.1
2018-Apr-22 09:00N 34°15' E 135°06'0 0.1
2018-Apr-22 08:30N 34°15' E 135°06'0 0.0
2018-Apr-22 08:00N 34°15' E 135°06'0 0.1
2018-Apr-22 07:30N 34°15' E 135°06'0 0.0
2018-Apr-22 07:00N 34°15' E 135°06'0 0.0
2018-Apr-22 06:30N 34°15' E 135°06'0 0.1
2018-Apr-22 06:00N 34°15' E 135°06'4 9.2
2018-Apr-22 05:31N 34°12' E 135°02'612.6
2018-Apr-22 05:00N 34°07' E 134°57'612.4
2018-Apr-22 04:31N 34°02' E 134°52'612.4
2018-Apr-22 04:00N 33°57' E 134°47'712.1
2018-Apr-22 03:28N 33°53' E 134°41'3 5.6
2018-Apr-22 02:59N 33°52' E 134°38'0 0.0
2018-Apr-21 23:41N 33°52' E 134°38'0 0.0
2018-Apr-21 22:23N 33°52' E 134°38'0 0.0
2018-Apr-21 21:23N 33°52' E 134°38'0 0.0
2018-Apr-21 20:47N 33°52' E 134°38'0 0.0
2018-Apr-21 18:59N 33°52' E 134°38'0 0.0
2018-Apr-21 07:47N 33°52' E 134°38'0 0.0
2018-Apr-21 06:53N 33°52' E 134°38'0 0.0
2018-Apr-21 06:29N 33°52' E 134°38'0 0.0
2018-Apr-21 05:59N 33°52' E 134°38'0 0.0
2018-Apr-21 05:29N 33°52' E 134°38'0 0.0
2018-Apr-21 04:59N 33°52' E 134°38'0 0.0
2018-Apr-21 04:29N 33°52' E 134°38'0 0.0
2018-Apr-21 03:59N 33°52' E 134°38'0 0.0
2018-Apr-21 03:29N 33°52' E 134°38'0 0.0
2018-Apr-21 02:59N 33°52' E 134°38'0 0.0
2018-Apr-21 02:29N 33°52' E 134°38'0 0.0
2018-Apr-21 01:59N 33°52' E 134°38'0 0.0
2018-Apr-21 00:53N 33°52' E 134°38'0 0.0
2018-Apr-21 00:23N 33°52' E 134°38'0 0.0
2018-Apr-20 23:23N 33°52' E 134°38'0 0.0
2018-Apr-20 22:59N 33°52' E 134°38'0 0.0
2018-Apr-20 22:11N 33°52' E 134°38'0 0.0
2018-Apr-20 21:53N 33°52' E 134°38'0 0.0
2018-Apr-20 21:17N 33°52' E 134°38'0 0.0
2018-Apr-20 20:59N 33°52' E 134°38'0 0.0
2018-Apr-20 06:05N 33°52' E 134°38'0 0.0
2018-Apr-20 05:54N 33°52' E 134°38'1 3.4
2018-Apr-20 05:30N 33°52' E 134°40'1 0.9
2018-Apr-20 04:08N 33°52' E 134°41'0 2.9
2018-Apr-20 04:00N 33°52' E 134°41'2 2.6
2018-Apr-20 03:25N 33°52' E 134°39'0 0.0
2018-Apr-20 02:49N 33°52' E 134°39'0 0.0
2018-Apr-20 02:07N 33°52' E 134°39'0 0.0
2018-Apr-20 01:55N 33°52' E 134°39'0 0.0
2018-Apr-20 01:25N 33°52' E 134°39'0 0.0
2018-Apr-20 00:49N 33°52' E 134°39'0 0.0
2018-Apr-20 00:25N 33°52' E 134°39'0 0.0
2018-Apr-19 23:55N 33°52' E 134°39'0 0.0
2018-Apr-19 23:28N 33°52' E 134°39'0 0.0
2018-Apr-19 23:00N 33°52' E 134°39'2 4.0
2018-Apr-19 22:30N 33°52' E 134°42'0 0.1
2018-Apr-19 21:28N 33°52' E 134°42'0 0.0
2018-Apr-19 09:29N 33°52' E 134°42'5 9.3
2018-Apr-19 09:00N 33°56' E 134°44'611.1
2018-Apr-19 08:30N 34°02' E 134°43'611.3
2018-Apr-19 07:59N 34°07' E 134°41'612.1
2018-Apr-19 07:30N 34°13' E 134°39'612.6
2018-Apr-19 07:01N 34°18' E 134°36'611.4
2018-Apr-19 06:31N 34°23' E 134°32'611.8
2018-Apr-19 06:01N 34°29' E 134°29'611.8
2018-Apr-19 05:30N 34°34' E 134°26'611.9
2018-Apr-19 04:59N 34°40' E 134°23'510.2
2018-Apr-19 04:30N 34°45' E 134°22'0 0.1
2018-Apr-19 03:45N 34°45' E 134°22'0 0.0
2018-Apr-19 03:15N 34°45' E 134°22'0 0.0
2018-Apr-19 02:45N 34°45' E 134°22'0 0.0
2018-Apr-19 02:27N 34°45' E 134°22'0 0.0
2018-Apr-19 01:51N 34°45' E 134°22'0 0.0
2018-Apr-19 01:27N 34°45' E 134°22'0 0.0
2018-Apr-19 00:57N 34°45' E 134°22'0 0.0
2018-Apr-19 00:21N 34°45' E 134°22'0 0.0
2018-Apr-18 23:57N 34°45' E 134°22'0 0.0
2018-Apr-18 23:30N 34°45' E 134°22'3 5.4
2018-Apr-18 22:56N 34°42' E 134°23'1 0.4
2018-Apr-18 20:48N 34°41' E 134°23'0 0.0
2018-Apr-18 20:30N 34°41' E 134°23'0 0.0
2018-Apr-18 20:00N 34°41' E 134°23'0 0.0
2018-Apr-18 19:24N 34°41' E 134°23'0 0.0
2018-Apr-18 18:54N 34°41' E 134°23'0 0.0
2018-Apr-18 18:30N 34°41' E 134°23'0 0.0
2018-Apr-18 18:00N 34°41' E 134°23'0 0.0
2018-Apr-18 17:18N 34°41' E 134°23'0 0.0
2018-Apr-18 17:00N 34°41' E 134°23'0 0.0
2018-Apr-18 15:42N 34°41' E 134°23'0 0.2
2018-Apr-18 15:24N 34°41' E 134°23'0 0.0
2018-Apr-18 15:00N 34°41' E 134°23'0 0.0
2018-Apr-18 14:18N 34°41' E 134°23'0 0.0
2018-Apr-18 13:54N 34°41' E 134°23'0 0.0
2018-Apr-18 13:30N 34°41' E 134°23'0 0.0
2018-Apr-18 13:00N 34°41' E 134°23'0 0.0
2018-Apr-18 12:30N 34°41' E 134°23'0 0.0
2018-Apr-18 12:00N 34°41' E 134°23'0 0.2
2018-Apr-18 10:38N 34°41' E 134°24'511.6
2018-Apr-18 10:10N 34°36' E 134°25'212.6
2018-Apr-18 10:00N 34°34' E 134°26'612.5
2018-Apr-18 09:31N 34°29' E 134°31'612.3
2018-Apr-18 08:59N 34°23' E 134°33'1112.7
2018-Apr-18 08:06N 34°13' E 134°40'111.3
2018-Apr-18 08:00N 34°12' E 134°40'612.2
2018-Apr-18 07:30N 34°06' E 134°39'4 0.1
2018-Apr-16 22:27N 34°03' E 134°35'0 0.3
2018-Apr-16 21:55N 34°03' E 134°35'2 1.7
2018-Apr-16 20:41N 34°04' E 134°38'0 0.0
2018-Apr-16 20:23N 34°04' E 134°38'0 0.0
2018-Apr-16 19:59N 34°04' E 134°38'0 0.0
2018-Apr-16 11:01N 34°04' E 134°38'0 6.0
2018-Apr-16 10:59N 34°04' E 134°38'511.0
2018-Apr-16 10:30N 34°06' E 134°44'611.3
2018-Apr-16 10:00N 34°09' E 134°50'611.7
2018-Apr-16 09:30N 34°11' E 134°57'611.4
2018-Apr-16 09:00N 34°13' E 135°03'4 8.2
2018-Apr-16 08:31N 34°14' E 135°08'0 0.1
2018-Apr-16 07:59N 34°14' E 135°08'0 0.0
2018-Apr-16 07:29N 34°14' E 135°08'0 0.0
2018-Apr-16 06:59N 34°14' E 135°08'0 0.1
2018-Apr-16 06:29N 34°14' E 135°08'0 0.1
2018-Apr-16 05:59N 34°14' E 135°08'0 0.1
2018-Apr-16 05:29N 34°14' E 135°08'0 0.2
2018-Apr-16 05:01N 34°14' E 135°08'3 5.3
2018-Apr-16 04:31N 34°12' E 135°06'510.4
2018-Apr-16 04:01N 34°07' E 135°08'0 0.2
2018-Apr-16 03:30N 34°07' E 135°08'0 0.0
2018-Apr-16 03:00N 34°07' E 135°08'0 0.0
2018-Apr-16 02:30N 34°07' E 135°08'0 0.0
2018-Apr-16 02:01N 34°07' E 135°08'0 0.0
2018-Apr-16 01:31N 34°07' E 135°08'0 0.0
2018-Apr-16 01:01N 34°07' E 135°08'0 0.0
2018-Apr-16 00:31N 34°07' E 135°08'0 0.0
2018-Apr-16 00:01N 34°07' E 135°08'0 0.0
2018-Apr-15 23:31N 34°07' E 135°08'1 1.9
2018-Apr-15 23:01N 34°07' E 135°07'0 0.0
2018-Apr-15 22:29N 34°07' E 135°07'0 0.0
2018-Apr-15 21:59N 34°07' E 135°07'0 0.0
2018-Apr-15 21:29N 34°08' E 135°07'0 0.0
2018-Apr-15 20:59N 34°07' E 135°07'0 0.0
2018-Apr-15 20:29N 34°07' E 135°07'0 0.0
2018-Apr-15 19:59N 34°07' E 135°07'0 0.1
2018-Apr-15 19:29N 34°07' E 135°07'1 2.4
2018-Apr-15 19:00N 34°08' E 135°06'510.8
2018-Apr-15 18:30N 34°10' E 135°00'510.7
2018-Apr-15 18:00N 34°11' E 134°54'610.9
2018-Apr-15 17:30N 34°11' E 134°47'510.2
2018-Apr-15 17:00N 34°12' E 134°41'611.7
2018-Apr-15 16:29N 34°17' E 134°37'511.3
2018-Apr-15 16:00N 34°22' E 134°34'611.3
2018-Apr-15 15:30N 34°27' E 134°31'611.4
2018-Apr-15 14:59N 34°32' E 134°28'611.5
2018-Apr-15 14:30N 34°37' E 134°25'611.3
2018-Apr-15 14:00N 34°43' E 134°22'2 0.9
2018-Apr-15 11:38N 34°45' E 134°22'0 0.0
2018-Apr-15 11:14N 34°45' E 134°22'0 0.0
2018-Apr-15 10:50N 34°45' E 134°22'3 0.4
2018-Apr-15 02:34N 34°42' E 134°23'0 0.1
2018-Apr-15 02:16N 34°42' E 134°23'0 0.0
2018-Apr-14 23:52N 34°42' E 134°23'0 0.0
2018-Apr-14 19:46N 34°42' E 134°23'0 0.0
2018-Apr-14 18:22N 34°42' E 134°23'0 0.0
2018-Apr-14 17:58N 34°42' E 134°23'0 0.0
2018-Apr-14 17:28N 34°42' E 134°23'0 0.0
2018-Apr-14 14:12N 34°42' E 134°23'2 7.7
2018-Apr-14 13:59N 34°42' E 134°25'612.3
2018-Apr-14 13:30N 34°42' E 134°32'712.5
2018-Apr-14 12:59N 34°40' E 134°40'612.6
2018-Apr-14 12:31N 34°39' E 134°47'713.2
2018-Apr-14 12:00N 34°37' E 134°55'714.0
2018-Apr-14 11:30N 34°36' E 135°03'713.4
2018-Apr-14 11:00N 34°37' E 135°11'612.5
2018-Apr-14 10:30N 34°38' E 135°19'611.8
2018-Apr-14 10:00N 34°39' E 135°26'1 2.0
2018-Apr-14 09:30N 34°40' E 135°27'0 0.0
2018-Apr-14 09:00N 34°40' E 135°27'0 0.0
2018-Apr-14 08:30N 34°40' E 135°27'0 0.0
2018-Apr-14 08:00N 34°40' E 135°27'0 0.0
2018-Apr-14 07:30N 34°40' E 135°27'0 0.0
2018-Apr-14 07:00N 34°40' E 135°27'0 0.0
2018-Apr-14 06:30N 34°40' E 135°27'0 0.0
2018-Apr-14 06:00N 34°40' E 135°27'0 0.0
2018-Apr-14 05:30N 34°40' E 135°27'0 0.0
2018-Apr-14 05:01N 34°40' E 135°27'0 0.0
2018-Apr-14 04:30N 34°40' E 135°27'3 5.7
2018-Apr-14 04:00N 34°38' E 135°24'5 9.8
2018-Apr-14 03:31N 34°36' E 135°19'0 0.3
2018-Apr-14 03:00N 34°36' E 135°19'0 0.0
2018-Apr-14 02:30N 34°36' E 135°19'0 0.0
2018-Apr-14 01:57N 34°36' E 135°19'0 0.0
2018-Apr-14 01:27N 34°36' E 135°19'0 0.0
2018-Apr-14 01:00N 34°36' E 135°19'0 0.1
2018-Apr-14 00:30N 34°36' E 135°19'0 0.0
2018-Apr-14 00:00N 34°36' E 135°19'0 0.0
2018-Apr-13 23:30N 34°36' E 135°19'0 0.0
2018-Apr-13 23:00N 34°36' E 135°19'0 0.0
2018-Apr-13 22:27N 34°36' E 135°19'0 0.0
2018-Apr-13 22:00N 34°36' E 135°19'0 0.0
2018-Apr-13 21:30N 34°36' E 135°19'0 0.0
2018-Apr-13 21:00N 34°36' E 135°19'0 0.0
2018-Apr-13 20:30N 34°36' E 135°19'0 0.0
2018-Apr-13 20:00N 34°36' E 135°19'0 0.0
2018-Apr-13 19:30N 34°36' E 135°19'0 0.0
2018-Apr-13 19:00N 34°36' E 135°19'0 0.0
2018-Apr-13 18:27N 34°36' E 135°19'0 0.0
2018-Apr-13 18:00N 34°36' E 135°19'0 0.0
2018-Apr-13 17:30N 34°36' E 135°19'0 0.0
2018-Apr-13 17:00N 34°36' E 135°19'0 0.0
2018-Apr-13 16:30N 34°36' E 135°19'0 0.0
2018-Apr-13 15:57N 34°36' E 135°19'0 0.0
2018-Apr-13 15:27N 34°36' E 135°19'0 0.0
2018-Apr-13 15:00N 34°36' E 135°19'0 0.0
2018-Apr-13 14:27N 34°36' E 135°19'0 0.1
2018-Apr-13 14:00N 34°36' E 135°19'0 0.1
2018-Apr-13 13:30N 34°36' E 135°19'0 0.1
2018-Apr-13 12:57N 34°36' E 135°19'0 0.0
2018-Apr-13 12:30N 34°36' E 135°19'0 0.1
2018-Apr-13 12:00N 34°36' E 135°19'0 0.0
2018-Apr-13 11:30N 34°36' E 135°19'  
Track history (hours):
 
Tides and Currents Weather Stations Pressure Air Temp Water Temp Dewpoint Dewpoint Depression Visibility Wind Speed Wind Dir Waves Ship Positions

Susaki Maru

Last reported at 2018-Apr-23 11:28 UTC. Time now 2018-Apr-24 14:32 UTC.
Position N 34°03' E 134°35'.

Length 79 m; draft 4.6 m.

Type: Tanker. MMSI: 431006292.

Date/timePositionNaut miles runAvg speedWind from/ knotsBaromVisibWave heightAir tempDewpointWater temp
2018-Apr-23 11:28N 34°03' E 134°35'0 0.0
2018-Apr-23 10:46N 34°03' E 134°35'0 0.0
2018-Apr-23 10:16N 34°03' E 134°35'0 0.0
2018-Apr-23 09:58N 34°03' E 134°35'0 0.0
2018-Apr-23 09:28N 34°03' E 134°35'0 0.0
2018-Apr-23 05:16N 34°03' E 134°35'0 0.0
2018-Apr-22 21:57N 34°03' E 134°35'2 5.2
2018-Apr-22 21:28N 34°03' E 134°38'611.4
2018-Apr-22 20:58N 34°06' E 134°44'511.4
2018-Apr-22 20:30N 34°08' E 134°50'611.6
2018-Apr-22 20:00N 34°11' E 134°56'611.3
2018-Apr-22 19:30N 34°13' E 135°02'5 9.3
2018-Apr-22 19:00N 34°14' E 135°08'0 0.1
2018-Apr-22 18:29N 34°14' E 135°08'0 0.0
2018-Apr-22 17:59N 34°14' E 135°08'0 0.0
2018-Apr-22 17:29N 34°14' E 135°08'0 0.0
2018-Apr-22 16:59N 34°14' E 135°08'0 0.0
2018-Apr-22 16:29N 34°14' E 135°08'0 0.1
2018-Apr-22 16:01N 34°14' E 135°08'2 4.2
2018-Apr-22 15:31N 34°15' E 135°05'0 0.7
2018-Apr-22 15:00N 34°15' E 135°06'0 0.0
2018-Apr-22 14:30N 34°15' E 135°06'0 0.0
2018-Apr-22 14:00N 34°15' E 135°06'0 0.0
2018-Apr-22 13:30N 34°15' E 135°06'0 0.0
2018-Apr-22 13:00N 34°15' E 135°06'0 0.0
2018-Apr-22 12:30N 34°15' E 135°06'0 0.0
2018-Apr-22 12:00N 34°15' E 135°06'0 0.0
2018-Apr-22 11:30N 34°15' E 135°06'0 0.0
2018-Apr-22 11:00N 34°15' E 135°06'0 0.0
2018-Apr-22 10:30N 34°15' E 135°06'0 0.1
2018-Apr-22 10:00N 34°15' E 135°06'0 0.0
2018-Apr-22 09:30N 34°15' E 135°06'0 0.1
2018-Apr-22 09:00N 34°15' E 135°06'0 0.1
2018-Apr-22 08:30N 34°15' E 135°06'0 0.0
2018-Apr-22 08:00N 34°15' E 135°06'0 0.1
2018-Apr-22 07:30N 34°15' E 135°06'0 0.0
2018-Apr-22 07:00N 34°15' E 135°06'0 0.0
2018-Apr-22 06:30N 34°15' E 135°06'0 0.1
2018-Apr-22 06:00N 34°15' E 135°06'4 9.2
2018-Apr-22 05:31N 34°12' E 135°02'612.6
2018-Apr-22 05:00N 34°07' E 134°57'612.4
2018-Apr-22 04:31N 34°02' E 134°52'612.4
2018-Apr-22 04:00N 33°57' E 134°47'712.1
2018-Apr-22 03:28N 33°53' E 134°41'3 5.6
2018-Apr-22 02:59N 33°52' E 134°38'0 0.0
2018-Apr-21 23:41N 33°52' E 134°38'0 0.0
2018-Apr-21 22:23N 33°52' E 134°38'0 0.0
2018-Apr-21 21:23N 33°52' E 134°38'0 0.0
2018-Apr-21 20:47N 33°52' E 134°38'0 0.0
2018-Apr-21 18:59N 33°52' E 134°38'0 0.0
2018-Apr-21 07:47N 33°52' E 134°38'0 0.0
2018-Apr-21 06:53N 33°52' E 134°38'0 0.0
2018-Apr-21 06:29N 33°52' E 134°38'0 0.0
2018-Apr-21 05:59N 33°52' E 134°38'0 0.0
2018-Apr-21 05:29N 33°52' E 134°38'0 0.0
2018-Apr-21 04:59N 33°52' E 134°38'0 0.0
2018-Apr-21 04:29N 33°52' E 134°38'0 0.0
2018-Apr-21 03:59N 33°52' E 134°38'0 0.0
2018-Apr-21 03:29N 33°52' E 134°38'0 0.0
2018-Apr-21 02:59N 33°52' E 134°38'0 0.0
2018-Apr-21 02:29N 33°52' E 134°38'0 0.0
2018-Apr-21 01:59N 33°52' E 134°38'0 0.0
2018-Apr-21 00:53N 33°52' E 134°38'0 0.0
2018-Apr-21 00:23N 33°52' E 134°38'0 0.0
2018-Apr-20 23:23N 33°52' E 134°38'0 0.0
2018-Apr-20 22:59N 33°52' E 134°38'0 0.0
2018-Apr-20 22:11N 33°52' E 134°38'0 0.0
2018-Apr-20 21:53N 33°52' E 134°38'0 0.0
2018-Apr-20 21:17N 33°52' E 134°38'0 0.0
2018-Apr-20 20:59N 33°52' E 134°38'0 0.0
2018-Apr-20 06:05N 33°52' E 134°38'0 0.0
2018-Apr-20 05:54N 33°52' E 134°38'1 3.4
2018-Apr-20 05:30N 33°52' E 134°40'1 0.9
2018-Apr-20 04:08N 33°52' E 134°41'0 2.9
2018-Apr-20 04:00N 33°52' E 134°41'2 2.6
2018-Apr-20 03:25N 33°52' E 134°39'0 0.0
2018-Apr-20 02:49N 33°52' E 134°39'0 0.0
2018-Apr-20 02:07N 33°52' E 134°39'0 0.0
2018-Apr-20 01:55N 33°52' E 134°39'0 0.0
2018-Apr-20 01:25N 33°52' E 134°39'0 0.0
2018-Apr-20 00:49N 33°52' E 134°39'0 0.0
2018-Apr-20 00:25N 33°52' E 134°39'0 0.0
2018-Apr-19 23:55N 33°52' E 134°39'0 0.0
2018-Apr-19 23:28N 33°52' E 134°39'0 0.0
2018-Apr-19 23:00N 33°52' E 134°39'2 4.0
2018-Apr-19 22:30N 33°52' E 134°42'0 0.1
2018-Apr-19 21:28N 33°52' E 134°42'0 0.0
2018-Apr-19 09:29N 33°52' E 134°42'5 9.3
2018-Apr-19 09:00N 33°56' E 134°44'611.1
2018-Apr-19 08:30N 34°02' E 134°43'611.3
2018-Apr-19 07:59N 34°07' E 134°41'612.1
2018-Apr-19 07:30N 34°13' E 134°39'612.6
2018-Apr-19 07:01N 34°18' E 134°36'611.4
2018-Apr-19 06:31N 34°23' E 134°32'611.8
2018-Apr-19 06:01N 34°29' E 134°29'611.8
2018-Apr-19 05:30N 34°34' E 134°26'611.9
2018-Apr-19 04:59N 34°40' E 134°23'510.2
2018-Apr-19 04:30N 34°45' E 134°22'0 0.1
2018-Apr-19 03:45N 34°45' E 134°22'0 0.0
2018-Apr-19 03:15N 34°45' E 134°22'0 0.0
2018-Apr-19 02:45N 34°45' E 134°22'0 0.0
2018-Apr-19 02:27N 34°45' E 134°22'0 0.0
2018-Apr-19 01:51N 34°45' E 134°22'0 0.0
2018-Apr-19 01:27N 34°45' E 134°22'0 0.0
2018-Apr-19 00:57N 34°45' E 134°22'0 0.0
2018-Apr-19 00:21N 34°45' E 134°22'0 0.0
2018-Apr-18 23:57N 34°45' E 134°22'0 0.0
2018-Apr-18 23:30N 34°45' E 134°22'3 5.4
2018-Apr-18 22:56N 34°42' E 134°23'1 0.4
2018-Apr-18 20:48N 34°41' E 134°23'0 0.0
2018-Apr-18 20:30N 34°41' E 134°23'0 0.0
2018-Apr-18 20:00N 34°41' E 134°23'0 0.0
2018-Apr-18 19:24N 34°41' E 134°23'0 0.0
2018-Apr-18 18:54N 34°41' E 134°23'0 0.0
2018-Apr-18 18:30N 34°41' E 134°23'0 0.0
2018-Apr-18 18:00N 34°41' E 134°23'0 0.0
2018-Apr-18 17:18N 34°41' E 134°23'0 0.0
2018-Apr-18 17:00N 34°41' E 134°23'0 0.0
2018-Apr-18 15:42N 34°41' E 134°23'0 0.2
2018-Apr-18 15:24N 34°41' E 134°23'0 0.0
2018-Apr-18 15:00N 34°41' E 134°23'0 0.0
2018-Apr-18 14:18N 34°41' E 134°23'0 0.0
2018-Apr-18 13:54N 34°41' E 134°23'0 0.0
2018-Apr-18 13:30N 34°41' E 134°23'0 0.0
2018-Apr-18 13:00N 34°41' E 134°23'0 0.0
2018-Apr-18 12:30N 34°41' E 134°23'0 0.0
2018-Apr-18 12:00N 34°41' E 134°23'0 0.2
2018-Apr-18 10:38N 34°41' E 134°24'511.6
2018-Apr-18 10:10N 34°36' E 134°25'212.6
2018-Apr-18 10:00N 34°34' E 134°26'612.5
2018-Apr-18 09:31N 34°29' E 134°31'612.3
2018-Apr-18 08:59N 34°23' E 134°33'1112.7
2018-Apr-18 08:06N 34°13' E 134°40'111.3
2018-Apr-18 08:00N 34°12' E 134°40'612.2
2018-Apr-18 07:30N 34°06' E 134°39'4 0.1
2018-Apr-16 22:27N 34°03' E 134°35'0 0.3
2018-Apr-16 21:55N 34°03' E 134°35'2 1.7
2018-Apr-16 20:41N 34°04' E 134°38'0 0.0
2018-Apr-16 20:23N 34°04' E 134°38'0 0.0
2018-Apr-16 19:59N 34°04' E 134°38'0 0.0
2018-Apr-16 11:01N 34°04' E 134°38'0 6.0
2018-Apr-16 10:59N 34°04' E 134°38'511.0
2018-Apr-16 10:30N 34°06' E 134°44'611.3
2018-Apr-16 10:00N 34°09' E 134°50'611.7
2018-Apr-16 09:30N 34°11' E 134°57'611.4
2018-Apr-16 09:00N 34°13' E 135°03'4 8.2
2018-Apr-16 08:31N 34°14' E 135°08'0 0.1
2018-Apr-16 07:59N 34°14' E 135°08'0 0.0
2018-Apr-16 07:29N 34°14' E 135°08'0 0.0
2018-Apr-16 06:59N 34°14' E 135°08'0 0.1
2018-Apr-16 06:29N 34°14' E 135°08'0 0.1
2018-Apr-16 05:59N 34°14' E 135°08'0 0.1
2018-Apr-16 05:29N 34°14' E 135°08'0 0.2
2018-Apr-16 05:01N 34°14' E 135°08'3 5.3
2018-Apr-16 04:31N 34°12' E 135°06'510.4
2018-Apr-16 04:01N 34°07' E 135°08'0 0.2
2018-Apr-16 03:30N 34°07' E 135°08'0 0.0
2018-Apr-16 03:00N 34°07' E 135°08'0 0.0
2018-Apr-16 02:30N 34°07' E 135°08'0 0.0
2018-Apr-16 02:01N 34°07' E 135°08'0 0.0
2018-Apr-16 01:31N 34°07' E 135°08'0 0.0
2018-Apr-16 01:01N 34°07' E 135°08'0 0.0
2018-Apr-16 00:31N 34°07' E 135°08'0 0.0
2018-Apr-16 00:01N 34°07' E 135°08'0 0.0
2018-Apr-15 23:31N 34°07' E 135°08'1 1.9
2018-Apr-15 23:01N 34°07' E 135°07'0 0.0
2018-Apr-15 22:29N 34°07' E 135°07'0 0.0
2018-Apr-15 21:59N 34°07' E 135°07'0 0.0
2018-Apr-15 21:29N 34°08' E 135°07'0 0.0
2018-Apr-15 20:59N 34°07' E 135°07'0 0.0
2018-Apr-15 20:29N 34°07' E 135°07'0 0.0
2018-Apr-15 19:59N 34°07' E 135°07'0 0.1
2018-Apr-15 19:29N 34°07' E 135°07'1 2.4
2018-Apr-15 19:00N 34°08' E 135°06'510.8
2018-Apr-15 18:30N 34°10' E 135°00'510.7
2018-Apr-15 18:00N 34°11' E 134°54'610.9
2018-Apr-15 17:30N 34°11' E 134°47'510.2
2018-Apr-15 17:00N 34°12' E 134°41'611.7
2018-Apr-15 16:29N 34°17' E 134°37'511.3
2018-Apr-15 16:00N 34°22' E 134°34'611.3
2018-Apr-15 15:30N 34°27' E 134°31'611.4
2018-Apr-15 14:59N 34°32' E 134°28'611.5
2018-Apr-15 14:30N 34°37' E 134°25'611.3
2018-Apr-15 14:00N 34°43' E 134°22'2 0.9
2018-Apr-15 11:38N 34°45' E 134°22'0 0.0
2018-Apr-15 11:14N 34°45' E 134°22'0 0.0
2018-Apr-15 10:50N 34°45' E 134°22'3 0.4
2018-Apr-15 02:34N 34°42' E 134°23'0 0.1
2018-Apr-15 02:16N 34°42' E 134°23'0 0.0
2018-Apr-14 23:52N 34°42' E 134°23'0 0.0
2018-Apr-14 19:46N 34°42' E 134°23'0 0.0
2018-Apr-14 18:22N 34°42' E 134°23'0 0.0
2018-Apr-14 17:58N 34°42' E 134°23'0 0.0
2018-Apr-14 17:28N 34°42' E 134°23'0 0.0
2018-Apr-14 14:12N 34°42' E 134°23'2 7.7
2018-Apr-14 13:59N 34°42' E 134°25'612.3
2018-Apr-14 13:30N 34°42' E 134°32'712.5
2018-Apr-14 12:59N 34°40' E 134°40'612.6
2018-Apr-14 12:31N 34°39' E 134°47'713.2
2018-Apr-14 12:00N 34°37' E 134°55'714.0
2018-Apr-14 11:30N 34°36' E 135°03'713.4
2018-Apr-14 11:00N 34°37' E 135°11'612.5
2018-Apr-14 10:30N 34°38' E 135°19'611.8
2018-Apr-14 10:00N 34°39' E 135°26'1 2.0
2018-Apr-14 09:30N 34°40' E 135°27'0 0.0
2018-Apr-14 09:00N 34°40' E 135°27'0 0.0
2018-Apr-14 08:30N 34°40' E 135°27'0 0.0
2018-Apr-14 08:00N 34°40' E 135°27'0 0.0
2018-Apr-14 07:30N 34°40' E 135°27'0 0.0
2018-Apr-14 07:00N 34°40' E 135°27'0 0.0
2018-Apr-14 06:30N 34°40' E 135°27'0 0.0
2018-Apr-14 06:00N 34°40' E 135°27'0 0.0
2018-Apr-14 05:30N 34°40' E 135°27'0 0.0
2018-Apr-14 05:01N 34°40' E 135°27'0 0.0
2018-Apr-14 04:30N 34°40' E 135°27'3 5.7
2018-Apr-14 04:00N 34°38' E 135°24'5 9.8
2018-Apr-14 03:31N 34°36' E 135°19'0 0.3
2018-Apr-14 03:00N 34°36' E 135°19'0 0.0
2018-Apr-14 02:30N 34°36' E 135°19'0 0.0
2018-Apr-14 01:57N 34°36' E 135°19'0 0.0
2018-Apr-14 01:27N 34°36' E 135°19'0 0.0
2018-Apr-14 01:00N 34°36' E 135°19'0 0.1
2018-Apr-14 00:30N 34°36' E 135°19'0 0.0
2018-Apr-14 00:00N 34°36' E 135°19'0 0.0
2018-Apr-13 23:30N 34°36' E 135°19'0 0.0
2018-Apr-13 23:00N 34°36' E 135°19'0 0.0
2018-Apr-13 22:27N 34°36' E 135°19'0 0.0
2018-Apr-13 22:00N 34°36' E 135°19'0 0.0
2018-Apr-13 21:30N 34°36' E 135°19'0 0.0
2018-Apr-13 21:00N 34°36' E 135°19'0 0.0
2018-Apr-13 20:30N 34°36' E 135°19'0 0.0
2018-Apr-13 20:00N 34°36' E 135°19'0 0.0
2018-Apr-13 19:30N 34°36' E 135°19'0 0.0
2018-Apr-13 19:00N 34°36' E 135°19'0 0.0
2018-Apr-13 18:27N 34°36' E 135°19'0 0.0
2018-Apr-13 18:00N 34°36' E 135°19'0 0.0
2018-Apr-13 17:30N 34°36' E 135°19'0 0.0
2018-Apr-13 17:00N 34°36' E 135°19'0 0.0
2018-Apr-13 16:30N 34°36' E 135°19'0 0.0
2018-Apr-13 15:57N 34°36' E 135°19'0 0.0
2018-Apr-13 15:27N 34°36' E 135°19'0 0.0
2018-Apr-13 15:00N 34°36' E 135°19'0 0.0
2018-Apr-13 14:27N 34°36' E 135°19'0 0.1
2018-Apr-13 14:00N 34°36' E 135°19'0 0.1
2018-Apr-13 13:30N 34°36' E 135°19'0 0.1
2018-Apr-13 12:57N 34°36' E 135°19'0 0.0
2018-Apr-13 12:30N 34°36' E 135°19'0 0.1
2018-Apr-13 12:00N 34°36' E 135°19'0 0.0
2018-Apr-13 11:30N 34°36' E 135°19'  

Dump ship's entire track history